sensor_id;sensor_type;location;lat;lon;timestamp;pressure;altitude;pressure_sealevel;temperature;humidity
77323;BME280;66384;51.052;9.850;2023-09-30T00:01:29;99377.73;;;15.29;69.63
77323;BME280;66384;51.052;9.850;2023-09-30T00:04:00;99385.11;;;15.25;69.57
77323;BME280;66384;51.052;9.850;2023-09-30T00:06:34;99389.02;;;15.21;69.64
77323;BME280;66384;51.052;9.850;2023-09-30T00:09:05;99390.50;;;15.17;69.54
77323;BME280;66384;51.052;9.850;2023-09-30T00:11:37;99388.30;;;15.12;69.34
77323;BME280;66384;51.052;9.850;2023-09-30T00:14:09;99391.84;;;15.06;69.16
77323;BME280;66384;51.052;9.850;2023-09-30T00:16:41;99397.29;;;15.00;69.13
77323;BME280;66384;51.052;9.850;2023-09-30T00:19:12;99401.04;;;14.97;69.33
77323;BME280;66384;51.052;9.850;2023-09-30T00:21:44;99404.44;;;14.94;69.37
77323;BME280;66384;51.052;9.850;2023-09-30T00:24:16;99404.17;;;14.90;69.24
77323;BME280;66384;51.052;9.850;2023-09-30T00:26:47;99402.69;;;14.84;69.18
77323;BME280;66384;51.052;9.850;2023-09-30T00:29:20;99411.55;;;14.78;69.13
77323;BME280;66384;51.052;9.850;2023-09-30T00:31:52;99413.13;;;14.70;68.64
77323;BME280;66384;51.052;9.850;2023-09-30T00:34:23;99419.19;;;14.62;68.72
77323;BME280;66384;51.052;9.850;2023-09-30T00:36:55;99425.14;;;14.58;68.75
77323;BME280;66384;51.052;9.850;2023-09-30T00:39:26;99428.70;;;14.53;69.01
77323;BME280;66384;51.052;9.850;2023-09-30T00:42:01;99436.52;;;14.49;69.05
77323;BME280;66384;51.052;9.850;2023-09-30T00:44:34;99437.48;;;14.45;68.75
77323;BME280;66384;51.052;9.850;2023-09-30T00:47:07;99436.02;;;14.43;68.69
77323;BME280;66384;51.052;9.850;2023-09-30T00:49:40;99436.54;;;14.42;68.95
77323;BME280;66384;51.052;9.850;2023-09-30T00:52:13;99449.52;;;14.42;68.98
77323;BME280;66384;51.052;9.850;2023-09-30T00:54:45;99457.45;;;14.41;68.97
77323;BME280;66384;51.052;9.850;2023-09-30T00:57:18;99458.44;;;14.39;68.97
77323;BME280;66384;51.052;9.850;2023-09-30T00:59:52;99453.77;;;14.39;69.15
77323;BME280;66384;51.052;9.850;2023-09-30T01:02:24;99455.83;;;14.38;69.01
77323;BME280;66384;51.052;9.850;2023-09-30T01:04:57;99459.27;;;14.38;69.12
77323;BME280;66384;51.052;9.850;2023-09-30T01:07:28;99456.52;;;14.38;69.13
77323;BME280;66384;51.052;9.850;2023-09-30T01:10:00;99454.93;;;14.37;69.13
77323;BME280;66384;51.052;9.850;2023-09-30T01:12:31;99458.54;;;14.35;69.11
77323;BME280;66384;51.052;9.850;2023-09-30T01:15:06;99459.71;;;14.34;69.05
77323;BME280;66384;51.052;9.850;2023-09-30T01:17:38;99461.60;;;14.34;69.00
77323;BME280;66384;51.052;9.850;2023-09-30T01:20:11;99466.95;;;14.33;68.89
77323;BME280;66384;51.052;9.850;2023-09-30T01:22:46;99473.77;;;14.29;68.79
77323;BME280;66384;51.052;9.850;2023-09-30T01:25:18;99476.82;;;14.26;68.86
77323;BME280;66384;51.052;9.850;2023-09-30T01:27:49;99479.13;;;14.21;68.93
77323;BME280;66384;51.052;9.850;2023-09-30T01:30:22;99481.13;;;14.18;68.98
77323;BME280;66384;51.052;9.850;2023-09-30T01:32:54;99475.02;;;14.16;69.24
77323;BME280;66384;51.052;9.850;2023-09-30T01:35:25;99478.11;;;14.15;69.30
77323;BME280;66384;51.052;9.850;2023-09-30T01:37:57;99481.17;;;14.13;69.26
77323;BME280;66384;51.052;9.850;2023-09-30T01:40:29;99482.93;;;14.07;69.20
77323;BME280;66384;51.052;9.850;2023-09-30T01:43:00;99484.86;;;14.01;69.19
77323;BME280;66384;51.052;9.850;2023-09-30T01:45:32;99491.92;;;13.94;69.30
77323;BME280;66384;51.052;9.850;2023-09-30T01:48:05;99493.46;;;13.86;69.49
77323;BME280;66384;51.052;9.850;2023-09-30T01:50:36;99489.50;;;13.80;69.63
77323;BME280;66384;51.052;9.850;2023-09-30T01:53:08;99480.07;;;13.76;69.71
77323;BME280;66384;51.052;9.850;2023-09-30T01:55:40;99478.30;;;13.74;69.91
77323;BME280;66384;51.052;9.850;2023-09-30T01:58:11;99474.30;;;13.74;70.05
77323;BME280;66384;51.052;9.850;2023-09-30T02:00:43;99475.63;;;13.71;70.16
77323;BME280;66384;51.052;9.850;2023-09-30T02:03:16;99481.06;;;13.68;70.25
77323;BME280;66384;51.052;9.850;2023-09-30T02:05:47;99474.59;;;13.64;70.27
77323;BME280;66384;51.052;9.850;2023-09-30T02:08:19;99469.21;;;13.64;70.32
77323;BME280;66384;51.052;9.850;2023-09-30T02:10:50;99472.48;;;13.63;70.46
77323;BME280;66384;51.052;9.850;2023-09-30T02:13:22;99481.31;;;13.63;70.51
77323;BME280;66384;51.052;9.850;2023-09-30T02:15:53;99485.50;;;13.65;70.53
77323;BME280;66384;51.052;9.850;2023-09-30T02:18:26;99494.01;;;13.67;70.54
77323;BME280;66384;51.052;9.850;2023-09-30T02:20:58;99479.00;;;13.67;70.65
77323;BME280;66384;51.052;9.850;2023-09-30T02:23:30;99469.13;;;13.67;70.60
77323;BME280;66384;51.052;9.850;2023-09-30T02:26:02;99473.10;;;13.67;70.62
77323;BME280;66384;51.052;9.850;2023-09-30T02:28:34;99471.70;;;13.66;70.71
77323;BME280;66384;51.052;9.850;2023-09-30T02:31:07;99471.02;;;13.67;70.78
77323;BME280;66384;51.052;9.850;2023-09-30T02:33:38;99479.34;;;13.67;70.74
77323;BME280;66384;51.052;9.850;2023-09-30T02:36:10;99471.86;;;13.66;70.83
77323;BME280;66384;51.052;9.850;2023-09-30T02:38:43;99476.39;;;13.67;70.76
77323;BME280;66384;51.052;9.850;2023-09-30T02:41:17;99481.61;;;13.69;70.82
77323;BME280;66384;51.052;9.850;2023-09-30T02:43:48;99494.92;;;13.69;70.81
77323;BME280;66384;51.052;9.850;2023-09-30T02:46:20;99500.98;;;13.69;70.77
77323;BME280;66384;51.052;9.850;2023-09-30T02:48:51;99481.80;;;13.69;70.88
77323;BME280;66384;51.052;9.850;2023-09-30T02:51:24;99472.69;;;13.71;70.92
77323;BME280;66384;51.052;9.850;2023-09-30T02:53:55;99480.31;;;13.72;70.92
77323;BME280;66384;51.052;9.850;2023-09-30T02:56:28;99497.30;;;13.74;70.88
77323;BME280;66384;51.052;9.850;2023-09-30T02:59:00;99497.30;;;13.73;70.82
77323;BME280;66384;51.052;9.850;2023-09-30T03:01:32;99490.68;;;13.72;70.74
77323;BME280;66384;51.052;9.850;2023-09-30T03:04:05;99490.61;;;13.69;70.80
77323;BME280;66384;51.052;9.850;2023-09-30T03:06:37;99491.61;;;13.68;70.80
77323;BME280;66384;51.052;9.850;2023-09-30T03:09:09;99484.36;;;13.68;70.82
77323;BME280;66384;51.052;9.850;2023-09-30T03:11:45;99497.84;;;13.68;70.88
77323;BME280;66384;51.052;9.850;2023-09-30T03:14:16;99505.07;;;13.67;70.84
77323;BME280;66384;51.052;9.850;2023-09-30T03:16:48;99507.06;;;13.64;70.85
77323;BME280;66384;51.052;9.850;2023-09-30T03:19:20;99509.29;;;13.63;70.97
77323;BME280;66384;51.052;9.850;2023-09-30T03:21:51;99518.42;;;13.62;71.02
77323;BME280;66384;51.052;9.850;2023-09-30T03:24:23;99516.52;;;13.62;71.04
77323;BME280;66384;51.052;9.850;2023-09-30T03:26:54;99509.08;;;13.61;71.02
77323;BME280;66384;51.052;9.850;2023-09-30T03:29:26;99497.08;;;13.59;71.01
77323;BME280;66384;51.052;9.850;2023-09-30T03:31:57;99497.92;;;13.58;71.13
77323;BME280;66384;51.052;9.850;2023-09-30T03:34:29;99506.55;;;13.57;71.05
77323;BME280;66384;51.052;9.850;2023-09-30T03:37:00;99514.80;;;13.56;71.05
77323;BME280;66384;51.052;9.850;2023-09-30T03:39:32;99520.62;;;13.54;71.07
77323;BME280;66384;51.052;9.850;2023-09-30T03:42:04;99524.83;;;13.50;71.00
77323;BME280;66384;51.052;9.850;2023-09-30T03:44:35;99525.95;;;13.46;71.00
77323;BME280;66384;51.052;9.850;2023-09-30T03:47:08;99525.36;;;13.44;71.07
77323;BME280;66384;51.052;9.850;2023-09-30T03:49:39;99525.48;;;13.42;71.10
77323;BME280;66384;51.052;9.850;2023-09-30T03:52:12;99525.61;;;13.40;71.13
77323;BME280;66384;51.052;9.850;2023-09-30T03:54:45;99527.45;;;13.38;71.16
77323;BME280;66384;51.052;9.850;2023-09-30T03:57:18;99519.78;;;13.36;71.13
77323;BME280;66384;51.052;9.850;2023-09-30T03:59:51;99517.64;;;13.34;71.30
77323;BME280;66384;51.052;9.850;2023-09-30T04:02:23;99515.92;;;13.34;71.37
77323;BME280;66384;51.052;9.850;2023-09-30T04:04:55;99526.23;;;13.32;71.20
77323;BME280;66384;51.052;9.850;2023-09-30T04:07:27;99526.33;;;13.30;71.40
77323;BME280;66384;51.052;9.850;2023-09-30T04:09:59;99526.14;;;13.29;71.42
77323;BME280;66384;51.052;9.850;2023-09-30T04:12:31;99530.36;;;13.26;71.51
77323;BME280;66384;51.052;9.850;2023-09-30T04:15:04;99535.98;;;13.24;71.55
77323;BME280;66384;51.052;9.850;2023-09-30T04:17:36;99539.73;;;13.22;71.61
77323;BME280;66384;51.052;9.850;2023-09-30T04:20:10;99544.89;;;13.21;71.65
77323;BME280;66384;51.052;9.850;2023-09-30T04:22:46;99542.61;;;13.20;71.57
77323;BME280;66384;51.052;9.850;2023-09-30T04:25:19;99537.73;;;13.18;71.51
77323;BME280;66384;51.052;9.850;2023-09-30T04:27:51;99532.65;;;13.16;71.52
77323;BME280;66384;51.052;9.850;2023-09-30T04:30:25;99524.97;;;13.13;71.43
77323;BME280;66384;51.052;9.850;2023-09-30T04:32:58;99524.20;;;13.10;71.48
77323;BME280;66384;51.052;9.850;2023-09-30T04:35:29;99525.63;;;13.06;71.51
77323;BME280;66384;51.052;9.850;2023-09-30T04:38:01;99528.70;;;13.05;71.60
77323;BME280;66384;51.052;9.850;2023-09-30T04:40:34;99530.50;;;13.02;71.72
77323;BME280;66384;51.052;9.850;2023-09-30T04:43:05;99534.41;;;13.00;71.66
77323;BME280;66384;51.052;9.850;2023-09-30T04:45:37;99538.71;;;12.99;71.72
77323;BME280;66384;51.052;9.850;2023-09-30T04:48:10;99544.91;;;12.98;71.69
77323;BME280;66384;51.052;9.850;2023-09-30T04:50:42;99547.63;;;12.97;71.44
77323;BME280;66384;51.052;9.850;2023-09-30T04:53:14;99549.94;;;12.93;71.31
77323;BME280;66384;51.052;9.850;2023-09-30T04:55:47;99557.92;;;12.89;71.29
77323;BME280;66384;51.052;9.850;2023-09-30T04:58:19;99558.80;;;12.84;71.20
77323;BME280;66384;51.052;9.850;2023-09-30T05:00:55;99555.91;;;12.80;71.10
77323;BME280;66384;51.052;9.850;2023-09-30T05:03:26;99562.66;;;12.75;71.09
77323;BME280;66384;51.052;9.850;2023-09-30T05:05:58;99561.98;;;12.69;70.98
77323;BME280;66384;51.052;9.850;2023-09-30T05:08:30;99564.38;;;12.64;70.72
77323;BME280;66384;51.052;9.850;2023-09-30T05:11:01;99563.10;;;12.56;70.73
77323;BME280;66384;51.052;9.850;2023-09-30T05:13:33;99564.45;;;12.50;70.59
77323;BME280;66384;51.052;9.850;2023-09-30T05:16:05;99563.03;;;12.43;70.50
77323;BME280;66384;51.052;9.850;2023-09-30T05:18:37;99559.85;;;12.36;70.67
77323;BME280;66384;51.052;9.850;2023-09-30T05:21:09;99561.77;;;12.31;70.66
77323;BME280;66384;51.052;9.850;2023-09-30T05:23:41;99561.00;;;12.29;70.87
77323;BME280;66384;51.052;9.850;2023-09-30T05:26:12;99563.71;;;12.27;71.00
77323;BME280;66384;51.052;9.850;2023-09-30T05:28:44;99568.61;;;12.24;70.89
77323;BME280;66384;51.052;9.850;2023-09-30T05:31:16;99573.17;;;12.21;70.89
77323;BME280;66384;51.052;9.850;2023-09-30T05:33:48;99571.23;;;12.19;70.93
77323;BME280;66384;51.052;9.850;2023-09-30T05:36:20;99568.92;;;12.18;70.74
77323;BME280;66384;51.052;9.850;2023-09-30T05:38:52;99565.89;;;12.15;70.78
77323;BME280;66384;51.052;9.850;2023-09-30T05:41:24;99561.52;;;12.13;70.68
77323;BME280;66384;51.052;9.850;2023-09-30T05:43:56;99567.98;;;12.11;70.82
77323;BME280;66384;51.052;9.850;2023-09-30T05:46:29;99566.86;;;12.08;70.71
77323;BME280;66384;51.052;9.850;2023-09-30T05:49:01;99569.36;;;12.06;70.96
77323;BME280;66384;51.052;9.850;2023-09-30T05:51:40;99579.39;;;12.02;70.42
77323;BME280;66384;51.052;9.850;2023-09-30T05:54:12;99593.56;;;11.98;70.46
77323;BME280;66384;51.052;9.850;2023-09-30T05:56:43;99598.50;;;11.96;70.48
77323;BME280;66384;51.052;9.850;2023-09-30T05:59:15;99601.04;;;11.95;70.53
77323;BME280;66384;51.052;9.850;2023-09-30T06:01:46;99601.73;;;11.95;70.67
77323;BME280;66384;51.052;9.850;2023-09-30T06:04:18;99601.16;;;11.93;70.88
77323;BME280;66384;51.052;9.850;2023-09-30T06:06:50;99602.52;;;11.93;70.72
77323;BME280;66384;51.052;9.850;2023-09-30T06:09:21;99609.79;;;11.93;70.56
77323;BME280;66384;51.052;9.850;2023-09-30T06:11:55;99614.66;;;11.95;70.75
77323;BME280;66384;51.052;9.850;2023-09-30T06:14:27;99615.77;;;11.97;70.71
77323;BME280;66384;51.052;9.850;2023-09-30T06:17:01;99611.54;;;11.99;70.81
77323;BME280;66384;51.052;9.850;2023-09-30T06:19:32;99615.79;;;12.02;71.07
77323;BME280;66384;51.052;9.850;2023-09-30T06:22:04;99612.56;;;12.04;71.24
77323;BME280;66384;51.052;9.850;2023-09-30T06:24:36;99611.43;;;12.06;70.99
77323;BME280;66384;51.052;9.850;2023-09-30T06:27:07;99617.02;;;12.07;71.03
77323;BME280;66384;51.052;9.850;2023-09-30T06:29:43;99616.23;;;12.10;71.20
77323;BME280;66384;51.052;9.850;2023-09-30T06:32:16;99613.79;;;12.14;71.15
77323;BME280;66384;51.052;9.850;2023-09-30T06:34:48;99605.65;;;12.18;71.07
77323;BME280;66384;51.052;9.850;2023-09-30T06:37:20;99602.81;;;12.21;71.05
77323;BME280;66384;51.052;9.850;2023-09-30T06:39:51;99603.41;;;12.23;71.08
77323;BME280;66384;51.052;9.850;2023-09-30T06:42:23;99603.81;;;12.25;71.33
77323;BME280;66384;51.052;9.850;2023-09-30T06:44:55;99605.98;;;12.27;71.38
77323;BME280;66384;51.052;9.850;2023-09-30T06:47:27;99613.82;;;12.30;71.46
77323;BME280;66384;51.052;9.850;2023-09-30T06:50:04;99626.38;;;12.34;71.61
77323;BME280;66384;51.052;9.850;2023-09-30T06:52:39;99640.69;;;12.39;71.63
77323;BME280;66384;51.052;9.850;2023-09-30T06:55:12;99639.09;;;12.43;71.78
77323;BME280;66384;51.052;9.850;2023-09-30T06:57:45;99646.81;;;12.47;71.91
77323;BME280;66384;51.052;9.850;2023-09-30T07:00:18;99648.31;;;12.50;72.02
77323;BME280;66384;51.052;9.850;2023-09-30T07:02:49;99652.80;;;12.55;72.14
77323;BME280;66384;51.052;9.850;2023-09-30T07:05:21;99650.20;;;12.60;72.09
77323;BME280;66384;51.052;9.850;2023-09-30T07:07:53;99650.95;;;12.62;72.15
77323;BME280;66384;51.052;9.850;2023-09-30T07:10:24;99656.14;;;12.62;72.21
77323;BME280;66384;51.052;9.850;2023-09-30T07:12:56;99663.02;;;12.66;72.50
77323;BME280;66384;51.052;9.850;2023-09-30T07:15:28;99660.44;;;12.72;72.73
77323;BME280;66384;51.052;9.850;2023-09-30T07:17:59;99654.90;;;12.77;72.91
77323;BME280;66384;51.052;9.850;2023-09-30T07:20:31;99657.51;;;12.83;72.95
77323;BME280;66384;51.052;9.850;2023-09-30T07:23:04;99661.45;;;12.87;72.93
77323;BME280;66384;51.052;9.850;2023-09-30T07:25:49;99665.49;;;12.95;73.15
77323;BME280;66384;51.052;9.850;2023-09-30T07:28:20;99666.22;;;13.01;73.32
77323;BME280;66384;51.052;9.850;2023-09-30T07:30:52;99666.77;;;13.08;73.35
77323;BME280;66384;51.052;9.850;2023-09-30T07:33:25;99663.67;;;13.13;73.51
77323;BME280;66384;51.052;9.850;2023-09-30T07:35:56;99664.83;;;13.17;73.53
77323;BME280;66384;51.052;9.850;2023-09-30T07:38:28;99664.23;;;13.20;73.58
77323;BME280;66384;51.052;9.850;2023-09-30T07:41:01;99669.05;;;13.25;73.98
77323;BME280;66384;51.052;9.850;2023-09-30T07:43:33;99668.31;;;13.29;74.01
77323;BME280;66384;51.052;9.850;2023-09-30T07:46:07;99670.55;;;13.34;74.00
77323;BME280;66384;51.052;9.850;2023-09-30T07:48:39;99670.21;;;13.40;74.11
77323;BME280;66384;51.052;9.850;2023-09-30T07:51:11;99672.68;;;13.47;73.95
77323;BME280;66384;51.052;9.850;2023-09-30T07:53:43;99678.60;;;13.54;73.58
77323;BME280;66384;51.052;9.850;2023-09-30T07:56:15;99679.65;;;13.60;73.30
77323;BME280;66384;51.052;9.850;2023-09-30T07:58:47;99679.02;;;13.69;73.27
77323;BME280;66384;51.052;9.850;2023-09-30T08:01:19;99673.06;;;13.77;73.09
77323;BME280;66384;51.052;9.850;2023-09-30T08:03:50;99669.50;;;13.86;72.88
77323;BME280;66384;51.052;9.850;2023-09-30T08:06:22;99676.16;;;13.95;72.41
77323;BME280;66384;51.052;9.850;2023-09-30T08:08:54;99676.02;;;14.02;72.12
77323;BME280;66384;51.052;9.850;2023-09-30T08:11:26;99674.45;;;14.08;71.73
77323;BME280;66384;51.052;9.850;2023-09-30T08:14:01;99672.02;;;14.14;71.80
77323;BME280;66384;51.052;9.850;2023-09-30T08:16:36;99670.13;;;14.20;71.81
77323;BME280;66384;51.052;9.850;2023-09-30T08:19:08;99673.91;;;14.26;71.88
77323;BME280;66384;51.052;9.850;2023-09-30T08:21:40;99670.68;;;14.35;71.79
77323;BME280;66384;51.052;9.850;2023-09-30T08:24:11;99663.96;;;14.43;71.49
77323;BME280;66384;51.052;9.850;2023-09-30T08:26:43;99661.39;;;14.49;71.24
77323;BME280;66384;51.052;9.850;2023-09-30T08:29:14;99665.29;;;14.59;70.72
77323;BME280;66384;51.052;9.850;2023-09-30T08:31:46;99671.27;;;14.63;69.97
77323;BME280;66384;51.052;9.850;2023-09-30T08:34:18;99673.30;;;14.68;69.46
77323;BME280;66384;51.052;9.850;2023-09-30T08:36:51;99676.55;;;14.73;69.53
77323;BME280;66384;51.052;9.850;2023-09-30T08:39:22;99676.23;;;14.74;69.39
77323;BME280;66384;51.052;9.850;2023-09-30T08:41:56;99675.05;;;14.75;69.30
77323;BME280;66384;51.052;9.850;2023-09-30T08:44:30;99681.05;;;14.80;69.14
77323;BME280;66384;51.052;9.850;2023-09-30T08:47:02;99683.03;;;14.89;69.77
77323;BME280;66384;51.052;9.850;2023-09-30T08:49:35;99686.77;;;15.00;68.84
77323;BME280;66384;51.052;9.850;2023-09-30T08:52:11;99688.16;;;15.08;68.45
77323;BME280;66384;51.052;9.850;2023-09-30T08:54:43;99689.23;;;15.17;68.30
77323;BME280;66384;51.052;9.850;2023-09-30T08:57:15;99692.85;;;15.30;69.68
77323;BME280;66384;51.052;9.850;2023-09-30T08:59:50;99695.66;;;15.48;68.67
77323;BME280;66384;51.052;9.850;2023-09-30T09:02:21;99697.13;;;15.59;67.79
77323;BME280;66384;51.052;9.850;2023-09-30T09:04:53;99698.31;;;15.72;68.70
77323;BME280;66384;51.052;9.850;2023-09-30T09:07:25;99691.27;;;15.91;69.22
77323;BME280;66384;51.052;9.850;2023-09-30T09:10:08;99693.39;;;16.10;68.23
77323;BME280;66384;51.052;9.850;2023-09-30T09:12:41;99692.81;;;16.26;67.34
77323;BME280;66384;51.052;9.850;2023-09-30T09:15:24;99692.02;;;16.38;66.59
77323;BME280;66384;51.052;9.850;2023-09-30T09:17:57;99693.56;;;16.46;65.71
77323;BME280;66384;51.052;9.850;2023-09-30T09:20:29;99690.32;;;16.50;65.48
77323;BME280;66384;51.052;9.850;2023-09-30T09:23:01;99685.01;;;16.54;64.51
77323;BME280;66384;51.052;9.850;2023-09-30T09:25:39;99685.88;;;16.54;64.33
77323;BME280;66384;51.052;9.850;2023-09-30T09:28:11;99691.73;;;16.60;64.48
77323;BME280;66384;51.052;9.850;2023-09-30T09:30:46;99689.80;;;16.69;64.11
77323;BME280;66384;51.052;9.850;2023-09-30T09:33:18;99683.84;;;16.75;63.97
77323;BME280;66384;51.052;9.850;2023-09-30T09:35:50;99684.56;;;16.86;64.04
77323;BME280;66384;51.052;9.850;2023-09-30T09:38:21;99689.96;;;16.97;63.48
77323;BME280;66384;51.052;9.850;2023-09-30T09:41:00;99698.11;;;17.07;62.53
77323;BME280;66384;51.052;9.850;2023-09-30T09:43:33;99706.02;;;17.13;62.19
77323;BME280;66384;51.052;9.850;2023-09-30T09:46:08;99701.61;;;17.19;62.59
77323;BME280;66384;51.052;9.850;2023-09-30T09:48:40;99704.33;;;17.27;61.97
77323;BME280;66384;51.052;9.850;2023-09-30T09:51:12;99700.89;;;17.29;61.21
77323;BME280;66384;51.052;9.850;2023-09-30T09:53:45;99698.73;;;17.36;61.82
77323;BME280;66384;51.052;9.850;2023-09-30T09:56:16;99698.88;;;17.46;61.43
77323;BME280;66384;51.052;9.850;2023-09-30T09:58:48;99697.58;;;17.51;60.73
77323;BME280;66384;51.052;9.850;2023-09-30T10:01:21;99695.75;;;17.57;59.11
77323;BME280;66384;51.052;9.850;2023-09-30T10:03:52;99692.63;;;17.59;58.31
77323;BME280;66384;51.052;9.850;2023-09-30T10:06:25;99691.97;;;17.60;57.93
77323;BME280;66384;51.052;9.850;2023-09-30T10:08:57;99684.48;;;17.62;57.69
77323;BME280;66384;51.052;9.850;2023-09-30T10:11:30;99684.02;;;17.65;57.93
77323;BME280;66384;51.052;9.850;2023-09-30T10:14:02;99680.25;;;17.70;58.08
77323;BME280;66384;51.052;9.850;2023-09-30T10:16:50;99676.66;;;17.75;57.88
77323;BME280;66384;51.052;9.850;2023-09-30T10:19:23;99674.41;;;17.76;57.69
77323;BME280;66384;51.052;9.850;2023-09-30T10:22:22;99678.38;;;17.73;57.72
77323;BME280;66384;51.052;9.850;2023-09-30T10:24:56;99682.23;;;17.76;57.26
77323;BME280;66384;51.052;9.850;2023-09-30T10:27:36;99684.54;;;17.77;57.63
77323;BME280;66384;51.052;9.850;2023-09-30T10:30:15;99684.11;;;17.83;57.27
77323;BME280;66384;51.052;9.850;2023-09-30T10:33:13;99680.15;;;17.87;56.91
77323;BME280;66384;51.052;9.850;2023-09-30T10:35:50;99676.57;;;17.92;56.98
77323;BME280;66384;51.052;9.850;2023-09-30T10:38:39;99674.71;;;17.98;56.74
77323;BME280;66384;51.052;9.850;2023-09-30T10:44:37;99675.03;;;18.08;55.65
77323;BME280;66384;51.052;9.850;2023-09-30T10:47:36;99671.02;;;18.08;55.31
77323;BME280;66384;51.052;9.850;2023-09-30T10:50:50;99671.04;;;18.10;54.91
77323;BME280;66384;51.052;9.850;2023-09-30T10:53:23;99671.23;;;18.12;54.30
77323;BME280;66384;51.052;9.850;2023-09-30T10:55:57;99666.35;;;18.11;53.92
77323;BME280;66384;51.052;9.850;2023-09-30T10:58:42;99663.70;;;18.08;53.99
77323;BME280;66384;51.052;9.850;2023-09-30T11:01:16;99661.63;;;18.09;53.59
77323;BME280;66384;51.052;9.850;2023-09-30T11:03:49;99662.71;;;18.12;54.22
77323;BME280;66384;51.052;9.850;2023-09-30T11:06:22;99661.67;;;18.13;53.53
77323;BME280;66384;51.052;9.850;2023-09-30T11:08:55;99663.77;;;18.14;53.22
77323;BME280;66384;51.052;9.850;2023-09-30T11:11:39;99659.39;;;18.12;52.88
77323;BME280;66384;51.052;9.850;2023-09-30T11:14:21;99654.00;;;18.12;53.15
77323;BME280;66384;51.052;9.850;2023-09-30T11:16:58;99658.77;;;18.18;53.21
77323;BME280;66384;51.052;9.850;2023-09-30T11:19:41;99651.16;;;18.23;53.91
77323;BME280;66384;51.052;9.850;2023-09-30T11:22:17;99651.56;;;18.28;52.30
77323;BME280;66384;51.052;9.850;2023-09-30T11:24:49;99649.85;;;18.31;52.13
77323;BME280;66384;51.052;9.850;2023-09-30T11:27:25;99641.02;;;18.35;52.52
77323;BME280;66384;51.052;9.850;2023-09-30T11:29:57;99628.34;;;18.39;52.47
77323;BME280;66384;51.052;9.850;2023-09-30T11:32:29;99630.98;;;18.43;51.11
77323;BME280;66384;51.052;9.850;2023-09-30T11:35:05;99635.35;;;18.45;50.93
77323;BME280;66384;51.052;9.850;2023-09-30T11:37:42;99635.40;;;18.49;50.05
77323;BME280;66384;51.052;9.850;2023-09-30T11:40:16;99634.36;;;18.51;49.92
77323;BME280;66384;51.052;9.850;2023-09-30T11:43:10;99632.61;;;18.49;49.87
77323;BME280;66384;51.052;9.850;2023-09-30T11:45:42;99637.34;;;18.35;49.28
77323;BME280;66384;51.052;9.850;2023-09-30T11:48:21;99643.51;;;18.25;49.58
77323;BME280;66384;51.052;9.850;2023-09-30T11:50:53;99640.63;;;18.15;49.95
77323;BME280;66384;51.052;9.850;2023-09-30T11:53:26;99635.85;;;18.08;50.58
77323;BME280;66384;51.052;9.850;2023-09-30T11:55:57;99630.90;;;18.02;50.69
77323;BME280;66384;51.052;9.850;2023-09-30T11:58:29;99626.81;;;17.94;50.84
77323;BME280;66384;51.052;9.850;2023-09-30T12:01:02;99634.94;;;17.90;51.14
77323;BME280;66384;51.052;9.850;2023-09-30T12:03:37;99641.68;;;17.86;50.95
77323;BME280;66384;51.052;9.850;2023-09-30T12:06:10;99640.38;;;17.79;51.25
77323;BME280;66384;51.052;9.850;2023-09-30T12:08:44;99642.30;;;17.79;52.43
77323;BME280;66384;51.052;9.850;2023-09-30T12:11:16;99642.05;;;17.88;52.48
77323;BME280;66384;51.052;9.850;2023-09-30T12:13:47;99641.83;;;17.97;52.33
77323;BME280;66384;51.052;9.850;2023-09-30T12:16:20;99640.59;;;18.11;52.99
77323;BME280;66384;51.052;9.850;2023-09-30T12:18:51;99639.53;;;18.27;51.43
77323;BME280;66384;51.052;9.850;2023-09-30T12:21:23;99640.98;;;18.32;50.70
77323;BME280;66384;51.052;9.850;2023-09-30T12:23:54;99627.30;;;18.41;51.07
77323;BME280;66384;51.052;9.850;2023-09-30T12:26:26;99627.80;;;18.56;51.32
77323;BME280;66384;51.052;9.850;2023-09-30T12:28:58;99631.40;;;18.69;50.53
77323;BME280;66384;51.052;9.850;2023-09-30T12:31:30;99624.89;;;18.80;50.40
77323;BME280;66384;51.052;9.850;2023-09-30T12:34:19;99626.15;;;18.86;49.85
77323;BME280;66384;51.052;9.850;2023-09-30T12:36:53;99626.67;;;18.86;49.89
77323;BME280;66384;51.052;9.850;2023-09-30T12:39:26;99629.25;;;18.81;50.04
77323;BME280;66384;51.052;9.850;2023-09-30T12:42:01;99628.84;;;18.75;50.45
77323;BME280;66384;51.052;9.850;2023-09-30T12:44:39;99625.99;;;18.69;50.54
77323;BME280;66384;51.052;9.850;2023-09-30T12:47:11;99627.69;;;18.63;50.68
77323;BME280;66384;51.052;9.850;2023-09-30T12:49:43;99622.67;;;18.67;50.88
77323;BME280;66384;51.052;9.850;2023-09-30T12:52:14;99623.41;;;18.73;50.55
77323;BME280;66384;51.052;9.850;2023-09-30T12:54:46;99620.95;;;18.71;50.26
77323;BME280;66384;51.052;9.850;2023-09-30T12:57:19;99612.02;;;18.67;50.51
77323;BME280;66384;51.052;9.850;2023-09-30T12:59:50;99615.20;;;18.70;50.33
77323;BME280;66384;51.052;9.850;2023-09-30T13:02:23;99620.08;;;18.72;50.08
77323;BME280;66384;51.052;9.850;2023-09-30T13:04:56;99621.96;;;18.68;50.15
77323;BME280;66384;51.052;9.850;2023-09-30T13:07:27;99613.92;;;18.63;50.12
77323;BME280;66384;51.052;9.850;2023-09-30T13:09:59;99613.54;;;18.60;50.45
77323;BME280;66384;51.052;9.850;2023-09-30T13:12:31;99609.36;;;18.61;50.83
77323;BME280;66384;51.052;9.850;2023-09-30T13:15:05;99597.40;;;18.67;50.06
77323;BME280;66384;51.052;9.850;2023-09-30T13:17:39;99592.30;;;18.79;49.88
77323;BME280;66384;51.052;9.850;2023-09-30T13:20:12;99596.08;;;18.96;49.79
77323;BME280;66384;51.052;9.850;2023-09-30T13:22:43;99596.32;;;19.07;49.04
77323;BME280;66384;51.052;9.850;2023-09-30T13:25:16;99594.09;;;19.12;48.69
77323;BME280;66384;51.052;9.850;2023-09-30T13:27:48;99588.67;;;19.11;48.69
77323;BME280;66384;51.052;9.850;2023-09-30T13:30:20;99587.42;;;19.07;49.02
77323;BME280;66384;51.052;9.850;2023-09-30T13:32:53;99587.75;;;19.03;48.93
77323;BME280;66384;51.052;9.850;2023-09-30T13:35:24;99588.09;;;19.02;49.13